Time;durP1;ratioP1;P1;durP2;ratioP2;P2;SDS_P1;SDS_P2;PMS_P1;PMS_P2;Temp;Humidity;BMP_temperature;BMP_pressure;BME280_temperature;BME280_humidity;BME280_pressure;Samples;Min_cycle;Max_cycle;Signal;HPM_P1;HPM_P2
2021/08/08 00:00:18;;;;;;;2.90;1.17;;;;;;;16.69;71.26;99782.72;692672;28;3460;-53
2021/08/08 00:00:38;;;;;;;3.70;1.20;;;;;;;16.79;70.62;99787.59;692162;28;1550;-57
2021/08/08 00:00:59;;;;;;;2.33;1.10;;;;;;;16.78;70.51;99786.75;693366;28;4460;-55
2021/08/08 00:01:20;;;;;;;3.35;1.20;;;;;;;16.71;71.04;99787.94;693890;28;1265;-59
2021/08/08 00:01:40;;;;;;;2.85;1.20;;;;;;;16.65;71.33;99790.84;693965;28;1028;-57
2021/08/08 00:02:00;;;;;;;2.63;1.20;;;;;;;16.68;70.98;99786.31;696874;28;1161;-53
2021/08/08 00:02:21;;;;;;;2.20;1.10;;;;;;;16.66;71.20;99793.44;696744;28;1136;-57
2021/08/08 00:02:41;;;;;;;3.47;1.17;;;;;;;16.75;70.97;99786.88;693498;28;2020;-57
2021/08/08 00:03:02;;;;;;;3.90;1.30;;;;;;;16.81;70.22;99788.41;693636;28;1290;-57
2021/08/08 00:03:22;;;;;;;3.63;1.30;;;;;;;16.84;70.20;99785.63;692858;28;1309;-57
2021/08/08 00:03:42;;;;;;;2.70;1.10;;;;;;;16.83;70.44;99783.91;691944;28;4564;-58
2021/08/08 00:04:04;;;;;;;3.35;1.20;;;;;;;16.81;70.42;99791.91;693789;28;1289;-53
2021/08/08 00:04:24;;;;;;;3.28;1.30;;;;;;;16.76;70.67;99790.38;694590;28;1167;-58
2021/08/08 00:04:47;;;;;;;2.53;1.10;;;;;;;16.71;71.11;99789.72;693342;28;3122;-56
2021/08/08 00:05:10;;;;;;;2.92;1.13;;;;;;;16.74;70.77;99789.59;692930;28;1215;-56
2021/08/08 00:05:30;;;;;;;3.05;1.27;;;;;;;16.71;70.74;99795.84;694078;28;1248;-55
2021/08/08 00:05:51;;;;;;;3.10;1.27;;;;;;;16.72;71.02;99791.44;694842;28;1463;-57
2021/08/08 00:06:12;;;;;;;2.95;1.20;;;;;;;16.77;70.25;99789.47;693584;28;1319;-57
2021/08/08 00:06:32;;;;;;;3.50;1.33;;;;;;;16.73;70.82;99793.16;696687;28;1110;-55
2021/08/08 00:06:52;;;;;;;2.80;1.20;;;;;;;16.78;70.66;99783.25;695306;28;4408;-57
2021/08/08 00:07:13;;;;;;;2.97;1.30;;;;;;;16.74;70.47;99800.16;696348;28;1764;-56
2021/08/08 00:07:33;;;;;;;3.53;1.38;;;;;;;16.64;71.42;99790.00;696224;28;1026;-56
2021/08/08 00:07:54;;;;;;;4.13;1.30;;;;;;;16.64;71.00;99791.78;696977;28;1254;-57
2021/08/08 00:08:14;;;;;;;3.53;1.25;;;;;;;16.66;71.76;99788.16;696369;28;983;-55
2021/08/08 00:08:34;;;;;;;4.00;1.20;;;;;;;16.69;70.73;99793.28;693576;28;1058;-56
2021/08/08 00:08:55;;;;;;;5.32;1.23;;;;;;;16.66;71.00;99800.50;693962;28;1374;-53
2021/08/08 00:09:18;;;;;;;4.40;1.17;;;;;;;16.67;70.91;99783.75;693060;28;1882;-53
2021/08/08 00:09:38;;;;;;;4.22;1.25;;;;;;;16.78;70.43;99793.81;693026;28;3872;-53
2021/08/08 00:09:58;;;;;;;4.20;1.23;;;;;;;16.76;70.37;99791.25;692948;28;4444;-56
2021/08/08 00:10:19;;;;;;;3.78;1.20;;;;;;;16.74;70.68;99792.22;693723;28;1473;-54
2021/08/08 00:10:41;;;;;;;2.80;1.17;;;;;;;16.71;70.53;99792.38;692759;28;1058;-56
2021/08/08 00:11:02;;;;;;;2.83;1.10;;;;;;;16.64;71.31;99790.00;693297;28;1662;-57
2021/08/08 00:11:23;;;;;;;2.83;1.15;;;;;;;16.56;71.51;99792.13;693530;28;1493;-58
2021/08/08 00:11:43;;;;;;;3.47;1.10;;;;;;;16.63;71.17;99788.28;694457;28;1226;-56
2021/08/08 00:12:04;;;;;;;2.40;1.00;;;;;;;16.56;71.68;99792.13;694615;28;1036;-56
2021/08/08 00:12:24;;;;;;;3.03;1.20;;;;;;;16.56;71.30;99793.88;693019;28;1175;-57
2021/08/08 00:12:45;;;;;;;2.45;1.17;;;;;;;16.50;71.49;99795.91;693462;28;4393;-58
2021/08/08 00:13:06;;;;;;;3.08;1.20;;;;;;;16.49;71.24;99788.91;694325;28;1230;-56
2021/08/08 00:13:27;;;;;;;3.83;1.30;;;;;;;16.58;72.13;99792.91;694124;28;1262;-58
2021/08/08 00:13:47;;;;;;;4.40;1.30;;;;;;;16.68;71.18;99791.59;693575;28;3394;-56
2021/08/08 00:14:08;;;;;;;3.40;1.27;;;;;;;16.74;70.58;99800.16;692716;28;3762;-59
2021/08/08 00:14:29;;;;;;;3.30;1.20;;;;;;;16.67;71.44;99795.16;693431;28;1230;-57
2021/08/08 00:14:49;;;;;;;2.47;1.10;;;;;;;16.78;70.83;99792.03;693713;28;1291;-54
2021/08/08 00:15:12;;;;;;;2.85;1.20;;;;;;;16.72;70.89;99796.72;693775;28;1207;-58
2021/08/08 00:15:34;;;;;;;2.83;1.10;;;;;;;16.62;71.10;99796.28;694137;28;1181;-56
2021/08/08 00:15:55;;;;;;;2.58;1.10;;;;;;;16.56;71.08;99800.03;693353;28;4364;-56
2021/08/08 00:16:15;;;;;;;2.92;1.20;;;;;;;16.68;71.27;99791.59;693335;28;996;-53
2021/08/08 00:16:36;;;;;;;3.07;1.37;;;;;;;16.75;70.39;99791.31;693538;28;1151;-54
2021/08/08 00:16:56;;;;;;;3.92;1.50;;;;;;;16.71;70.67;99793.22;693493;28;1412;-55
2021/08/08 00:17:17;;;;;;;3.67;1.47;;;;;;;16.68;70.65;99791.59;692824;28;1934;-53
2021/08/08 00:17:39;;;;;;;2.73;1.23;;;;;;;16.77;70.34;99789.47;693539;28;1376;-53
2021/08/08 00:18:03;;;;;;;2.70;1.30;;;;;;;16.81;70.28;99791.06;694833;28;1433;-52
2021/08/08 00:18:23;;;;;;;3.58;1.30;;;;;;;16.84;70.09;99797.03;694260;28;3154;-54
2021/08/08 00:18:44;;;;;;;3.90;1.20;;;;;;;16.80;70.22;99795.44;693510;28;4610;-55
2021/08/08 00:19:04;;;;;;;2.50;1.10;;;;;;;16.82;70.07;99800.66;691631;28;1088;-56
2021/08/08 00:19:25;;;;;;;2.50;1.17;;;;;;;16.83;70.38;99794.47;691388;28;1306;-54
2021/08/08 00:19:45;;;;;;;2.27;1.10;;;;;;;16.82;70.31;99792.75;691364;28;1128;-54
2021/08/08 00:20:06;;;;;;;2.70;1.17;;;;;;;16.76;70.22;99804.44;691195;28;1016;-52
2021/08/08 00:20:27;;;;;;;3.63;1.30;;;;;;;16.80;70.16;99794.59;690932;28;1207;-52
2021/08/08 00:20:47;;;;;;;3.90;1.30;;;;;;;16.81;70.15;99797.19;688378;28;1535;-53
2021/08/08 00:21:08;;;;;;;3.60;1.20;;;;;;;16.85;69.67;99804.03;691733;28;1153;-57
2021/08/08 00:21:28;;;;;;;2.83;1.10;;;;;;;16.86;69.98;99804.88;691796;28;1431;-51
2021/08/08 00:21:49;;;;;;;3.43;1.30;;;;;;;16.84;69.78;99796.19;691484;28;4587;-55
2021/08/08 00:22:09;;;;;;;2.63;1.20;;;;;;;16.85;69.87;99797.91;691647;28;1098;-52
2021/08/08 00:22:29;;;;;;;3.28;1.20;;;;;;;16.84;70.04;99802.31;692363;28;1124;-53
2021/08/08 00:22:49;;;;;;;3.37;1.20;;;;;;;16.80;70.14;99799.88;694328;28;961;-52
2021/08/08 00:23:10;;;;;;;3.47;1.27;;;;;;;16.78;70.58;99805.25;690704;28;3697;-52
2021/08/08 00:23:30;;;;;;;4.07;1.30;;;;;;;16.77;70.19;99802.66;692096;28;1346;-53
2021/08/08 00:23:51;;;;;;;4.10;1.30;;;;;;;16.73;70.39;99809.00;690986;28;1248;-55
2021/08/08 00:24:11;;;;;;;3.00;1.20;;;;;;;16.75;70.66;99805.34;692110;28;1171;-56
2021/08/08 00:24:32;;;;;;;3.03;1.30;;;;;;;16.76;70.26;99803.59;694164;28;1235;-51
2021/08/08 00:24:53;;;;;;;2.95;1.30;;;;;;;16.73;70.03;99803.72;692400;28;4317;-56
2021/08/08 00:25:13;;;;;;;3.13;1.40;;;;;;;16.72;70.62;99804.66;694130;28;1184;-53
2021/08/08 00:25:34;;;;;;;3.17;1.30;;;;;;;16.75;70.28;99807.13;693710;28;1024;-54
2021/08/08 00:25:54;;;;;;;2.83;1.20;;;;;;;16.66;70.58;99803.97;693920;28;3170;-53
2021/08/08 00:26:15;;;;;;;2.45;1.10;;;;;;;16.69;70.60;99803.84;692723;28;1280;-54
2021/08/08 00:26:35;;;;;;;2.17;1.00;;;;;;;16.58;70.96;99800.81;692726;28;1597;-57
2021/08/08 00:26:56;;;;;;;3.00;1.27;;;;;;;16.58;71.01;99803.47;694238;28;1256;-54
2021/08/08 00:27:17;;;;;;;3.17;1.20;;;;;;;16.55;70.99;99802.75;694965;28;1463;-53
2021/08/08 00:27:38;;;;;;;2.95;1.13;;;;;;;16.48;71.21;99803.00;694180;28;1266;-52
2021/08/08 00:27:58;;;;;;;3.05;1.30;;;;;;;16.56;71.30;99801.81;692075;28;4484;-53
2021/08/08 00:28:19;;;;;;;2.53;1.10;;;;;;;16.58;71.17;99805.25;691261;28;1422;-54
2021/08/08 00:28:39;;;;;;;3.30;1.10;;;;;;;16.60;71.11;99806.91;692053;28;1441;-53
2021/08/08 00:28:59;;;;;;;3.22;1.10;;;;;;;16.57;71.27;99803.53;692406;28;1306;-55
2021/08/08 00:29:20;;;;;;;4.67;1.13;;;;;;;16.63;70.91;99803.28;692056;28;1277;-54
2021/08/08 00:29:40;;;;;;;5.15;1.30;;;;;;;16.55;71.11;99811.50;692366;28;1242;-53
2021/08/08 00:30:01;;;;;;;3.00;1.30;;;;;;;16.55;71.53;99808.03;692544;28;1347;-57
2021/08/08 00:30:22;;;;;;;2.58;1.20;;;;;;;16.48;71.66;99802.16;693051;28;1867;-55
2021/08/08 00:30:42;;;;;;;4.38;1.30;;;;;;;16.60;71.45;99806.03;690830;28;4508;-57
2021/08/08 00:31:02;;;;;;;3.73;1.30;;;;;;;16.55;71.29;99811.50;690804;28;1288;-58
2021/08/08 00:31:24;;;;;;;2.53;1.20;;;;;;;16.54;71.33;99799.22;692145;28;1477;-53
2021/08/08 00:31:47;;;;;;;2.22;1.10;;;;;;;16.61;71.52;99805.97;689039;28;1588;-53
2021/08/08 00:32:08;;;;;;;1.97;1.10;;;;;;;16.64;71.09;99808.47;685767;28;1393;-57
2021/08/08 00:32:32;;;;;;;2.75;1.30;;;;;;;16.64;70.71;99804.97;683539;28;1391;-55
2021/08/08 00:32:53;;;;;;;3.13;1.30;;;;;;;16.61;71.57;99803.31;682241;28;1352;-55
2021/08/08 00:33:23;;;;;;;3.53;1.30;;;;;;;16.64;71.38;99804.97;683435;28;1288;-56
2021/08/08 00:33:43;;;;;;;4.53;1.43;;;;;;;16.64;71.07;99808.47;684147;28;4598;-53
2021/08/08 00:34:04;;;;;;;4.50;1.40;;;;;;;16.73;70.82;99798.44;685949;28;1392;-55
2021/08/08 00:34:24;;;;;;;3.20;1.40;;;;;;;16.77;70.75;99805.31;688650;28;1282;-56
2021/08/08 00:34:46;;;;;;;3.90;1.30;;;;;;;16.73;71.20;99804.56;687687;28;1521;-54
2021/08/08 00:35:08;;;;;;;3.63;1.17;;;;;;;16.69;71.22;99798.56;685888;28;3883;-57
2021/08/08 00:35:29;;;;;;;3.72;1.40;;;;;;;16.71;71.19;99800.28;681012;28;1359;-53
2021/08/08 00:35:50;;;;;;;3.28;1.30;;;;;;;16.74;71.06;99800.16;683171;28;1819;-56
2021/08/08 00:36:17;;;;;;;3.90;1.35;;;;;;;16.64;71.10;99811.13;685684;28;1717;-56
2021/08/08 00:36:37;;;;;;;3.10;1.27;;;;;;;16.55;71.57;99797.47;687127;28;1384;-56
2021/08/08 00:36:58;;;;;;;3.05;1.20;;;;;;;16.61;71.32;99805.97;686045;28;4439;-54
2021/08/08 00:37:19;;;;;;;2.80;1.30;;;;;;;16.57;71.59;99807.00;688663;28;1971;-52
2021/08/08 00:37:44;;;;;;;2.50;1.33;;;;;;;16.52;71.71;99806.38;688078;28;1330;-53
2021/08/08 00:38:06;;;;;;;4.03;1.27;;;;;;;16.67;71.38;99808.34;687773;28;1226;-57
2021/08/08 00:38:27;;;;;;;4.20;1.20;;;;;;;16.55;72.03;99805.38;685262;28;1276;-54
2021/08/08 00:38:48;;;;;;;3.13;1.23;;;;;;;16.65;71.26;99809.34;683005;28;1340;-53
2021/08/08 00:39:08;;;;;;;2.73;1.30;;;;;;;16.67;71.06;99808.34;684455;28;3666;-55
2021/08/08 00:39:31;;;;;;;2.88;1.20;;;;;;;16.66;71.06;99803.97;686947;28;3018;-52
2021/08/08 00:39:52;;;;;;;3.05;1.10;;;;;;;16.66;70.92;99811.91;685582;28;4521;-53
2021/08/08 00:40:15;;;;;;;2.60;1.35;;;;;;;16.62;71.27;99801.56;687678;28;1217;-51
2021/08/08 00:40:35;;;;;;;3.40;1.50;;;;;;;16.58;71.52;99808.72;688368;28;1476;-53
2021/08/08 00:40:56;;;;;;;3.30;1.50;;;;;;;16.46;71.92;99796.06;689152;28;1282;-54
2021/08/08 00:41:18;;;;;;;2.38;1.27;;;;;;;16.48;71.50;99808.28;690561;28;1379;-56
2021/08/08 00:41:38;;;;;;;2.50;1.42;;;;;;;16.55;71.48;99805.38;686574;28;1290;-52
2021/08/08 00:42:02;;;;;;;3.28;1.50;;;;;;;16.59;71.25;99802.53;685456;28;1337;-52
2021/08/08 00:42:24;;;;;;;3.90;1.50;;;;;;;16.64;70.73;99813.75;683158;28;3736;-52
2021/08/08 00:42:49;;;;;;;3.13;1.38;;;;;;;16.67;70.87;99812.78;685140;28;4835;-55
2021/08/08 00:43:10;;;;;;;4.60;1.40;;;;;;;16.64;71.20;99807.59;686221;28;1244;-56
2021/08/08 00:43:34;;;;;;;3.72;1.40;;;;;;;16.63;71.15;99813.84;686724;28;1271;-52
2021/08/08 00:43:54;;;;;;;3.55;1.45;;;;;;;16.67;70.83;99810.13;686495;28;1220;-53
2021/08/08 00:44:15;;;;;;;3.07;1.40;;;;;;;16.65;70.94;99819.88;686559;28;1382;-56
2021/08/08 00:44:36;;;;;;;3.47;1.35;;;;;;;16.60;71.57;99808.66;684056;28;1238;-56
2021/08/08 00:44:57;;;;;;;3.30;1.30;;;;;;;16.66;71.41;99808.41;684131;28;1263;-52
2021/08/08 00:45:20;;;;;;;3.47;1.45;;;;;;;16.63;71.04;99809.41;686444;28;1541;-56
2021/08/08 00:45:44;;;;;;;3.97;1.60;;;;;;;16.57;71.70;99809.66;688418;28;4405;-55
2021/08/08 00:46:08;;;;;;;3.35;1.40;;;;;;;16.47;72.37;99809.19;685551;28;1588;-52
2021/08/08 00:46:29;;;;;;;2.97;1.30;;;;;;;16.55;71.51;99816.78;686293;28;1445;-53
2021/08/08 00:46:49;;;;;;;3.50;1.50;;;;;;;16.58;71.07;99821.09;689549;28;1293;-58
2021/08/08 00:47:10;;;;;;;2.92;1.40;;;;;;;16.43;71.51;99815.53;690591;28;1233;-53
2021/08/08 00:47:32;;;;;;;2.78;1.30;;;;;;;16.34;72.18;99815.94;690011;28;1774;-57
2021/08/08 00:47:52;;;;;;;4.50;1.70;;;;;;;16.42;72.23;99816.47;686801;28;1383;-55
2021/08/08 00:48:15;;;;;;;3.63;1.60;;;;;;;16.48;71.42;99820.63;686902;28;2079;-54
2021/08/08 00:48:37;;;;;;;2.72;1.48;;;;;;;16.52;71.18;99820.41;685843;28;1608;-54
2021/08/08 00:48:59;;;;;;;3.53;1.50;;;;;;;16.60;71.03;99816.56;686234;28;4424;-55
2021/08/08 00:49:19;;;;;;;3.90;1.58;;;;;;;16.53;71.12;99815.97;685059;28;1377;-57
2021/08/08 00:49:40;;;;;;;3.30;1.48;;;;;;;16.54;71.61;99820.34;687486;28;1115;-55
2021/08/08 00:50:01;;;;;;;3.08;1.48;;;;;;;16.60;70.91;99821.84;685671;28;1403;-55
2021/08/08 00:50:23;;;;;;;4.20;1.55;;;;;;;16.65;70.72;99825.16;683132;28;1398;-56
2021/08/08 00:50:44;;;;;;;3.50;1.42;;;;;;;16.67;70.70;99821.53;683861;28;1565;-54
2021/08/08 00:51:07;;;;;;;4.22;1.55;;;;;;;16.68;71.00;99820.63;684180;28;1240;-57
2021/08/08 00:51:38;;;;;;;3.47;1.50;;;;;;;16.57;71.03;99817.56;685973;28;1500;-55
2021/08/08 00:52:00;;;;;;;3.10;1.40;;;;;;;16.59;71.17;99818.38;688861;28;5038;-56
2021/08/08 00:52:24;;;;;;;3.03;1.40;;;;;;;16.63;71.21;99825.22;691691;28;1298;-55
2021/08/08 00:52:45;;;;;;;3.63;1.55;;;;;;;16.57;71.31;99817.56;686470;28;2350;-53
2021/08/08 00:53:07;;;;;;;4.10;1.60;;;;;;;16.60;71.40;99821.84;685994;28;1297;-54
2021/08/08 00:53:28;;;;;;;2.85;1.40;;;;;;;16.56;71.27;99818.50;688469;28;1438;-57
2021/08/08 00:53:51;;;;;;;3.88;1.42;;;;;;;16.50;71.49;99824.03;686922;28;1298;-54
2021/08/08 00:54:12;;;;;;;3.73;1.50;;;;;;;16.39;71.89;99816.56;689272;28;1216;-58
2021/08/08 00:54:35;;;;;;;4.05;1.50;;;;;;;16.34;71.84;99824.69;687563;28;1676;-57
2021/08/08 00:54:56;;;;;;;3.67;1.48;;;;;;;16.29;71.87;99821.38;685194;28;4410;-55
2021/08/08 00:55:17;;;;;;;4.20;1.50;;;;;;;16.23;72.68;99824.28;686892;28;1435;-58
2021/08/08 00:55:38;;;;;;;4.55;1.40;;;;;;;16.23;72.71;99826.06;687377;28;3685;-56
2021/08/08 00:55:59;;;;;;;3.85;1.60;;;;;;;16.21;72.74;99823.47;688950;28;1530;-56
2021/08/08 00:56:21;;;;;;;3.55;1.63;;;;;;;16.19;73.32;99819.22;689371;28;1535;-57
2021/08/08 00:56:43;;;;;;;2.78;1.55;;;;;;;16.33;72.12;99820.31;689206;28;1511;-57
2021/08/08 00:57:04;;;;;;;2.90;1.50;;;;;;;16.47;71.52;99824.16;688690;28;2004;-52
2021/08/08 00:57:25;;;;;;;5.47;1.75;;;;;;;16.47;71.46;99826.81;689390;28;1981;-54
2021/08/08 00:57:46;;;;;;;3.10;1.60;;;;;;;16.44;71.55;99830.44;687710;28;4566;-52
2021/08/08 00:58:06;;;;;;;3.40;1.40;;;;;;;16.39;71.76;99834.19;688676;28;1798;-54
2021/08/08 00:58:29;;;;;;;3.33;1.67;;;;;;;16.52;71.54;99827.47;690093;28;1917;-52
2021/08/08 00:58:54;;;;;;;3.33;1.60;;;;;;;16.60;71.23;99821.84;689441;28;3278;-51
2021/08/08 00:59:17;;;;;;;2.88;1.40;;;;;;;16.58;71.36;99824.56;690520;28;1285;-52
2021/08/08 00:59:37;;;;;;;3.17;1.40;;;;;;;16.62;71.23;99818.22;691165;28;2039;-52
2021/08/08 01:00:02;;;;;;;3.65;1.50;;;;;;;16.61;71.03;99827.06;691484;28;1725;-55
2021/08/08 01:00:23;;;;;;;3.35;1.50;;;;;;;16.54;71.55;99830.91;691494;28;1437;-56
2021/08/08 01:00:46;;;;;;;4.57;1.70;;;;;;;16.59;71.70;99825.44;689868;28;4589;-53
2021/08/08 01:01:13;;;;;;;4.47;1.60;;;;;;;16.64;70.87;99832.22;690011;28;4319;-52
2021/08/08 01:01:39;;;;;;;4.20;1.70;;;;;;;16.59;70.97;99831.56;686007;28;1972;-54
2021/08/08 01:02:04;;;;;;;4.45;1.50;;;;;;;16.58;70.99;99834.28;684794;28;1727;-53
2021/08/08 01:02:27;;;;;;;3.63;1.60;;;;;;;16.56;71.68;99826.44;688201;28;1456;-53
2021/08/08 01:02:55;;;;;;;3.60;1.52;;;;;;;16.62;70.95;99828.78;686576;28;1667;-53
2021/08/08 01:03:20;;;;;;;4.55;1.70;;;;;;;16.55;71.19;99831.78;686801;28;1633;-53
2021/08/08 01:03:43;;;;;;;4.15;1.80;;;;;;;16.50;71.29;99834.59;689066;28;4476;-54
2021/08/08 01:04:16;;;;;;;3.58;1.67;;;;;;;16.52;71.58;99836.25;686103;28;1933;-53
2021/08/08 01:04:44;;;;;;;4.25;1.60;;;;;;;16.56;70.91;99828.19;687159;28;1581;-56
2021/08/08 01:05:08;;;;;;;3.83;1.60;;;;;;;16.51;71.27;99826.59;686334;28;1263;-55
2021/08/08 01:05:49;;;;;;;4.55;1.50;;;;;;;16.41;72.10;99824.44;688721;28;1455;-56
2021/08/08 01:06:17;;;;;;;3.78;1.70;;;;;;;16.38;71.95;99830.72;690650;28;4271;-55
2021/08/08 01:06:58;;;;;;;3.28;1.50;;;;;;;16.24;73.04;99830.41;687765;28;1613;-52
2021/08/08 01:07:27;;;;;;;5.22;1.70;;;;;;;16.23;72.94;99832.19;688704;28;5015;-55
2021/08/08 01:07:56;;;;;;;4.78;1.80;;;;;;;16.19;73.31;99830.59;687606;28;1794;-53
2021/08/08 01:08:29;;;;;;;4.35;1.80;;;;;;;16.24;73.46;99822.50;684755;28;1402;-56
2021/08/08 01:08:55;;;;;;;5.00;1.70;;;;;;;16.23;73.54;99824.28;685705;28;1296;-55
2021/08/08 01:09:16;;;;;;;4.40;1.83;;;;;;;16.30;72.97;99830.16;684841;28;1658;-53
2021/08/08 01:09:44;;;;;;;3.75;2.15;;;;;;;16.25;72.81;99825.06;686210;28;1359;-55
2021/08/08 01:10:05;;;;;;;4.38;1.73;;;;;;;16.39;72.83;99827.13;683663;28;5094;-56
2021/08/08 01:10:32;;;;;;;4.15;2.00;;;;;;;16.54;71.48;99824.78;683810;28;1490;-51
2021/08/08 01:10:54;;;;;;;3.97;2.13;;;;;;;16.57;71.33;99828.13;683892;28;1647;-54
2021/08/08 01:11:15;;;;;;;4.50;1.90;;;;;;;16.45;71.93;99828.66;685933;28;1575;-57
2021/08/08 01:11:39;;;;;;;5.93;1.90;;;;;;;16.51;71.46;99831.03;688739;28;1728;-54
2021/08/08 01:12:00;;;;;;;4.38;1.80;;;;;;;16.42;71.91;99828.78;688724;28;1941;-56
2021/08/08 01:12:22;;;;;;;3.70;1.80;;;;;;;16.34;72.42;99829.97;689723;28;1655;-51
2021/08/08 01:12:48;;;;;;;4.45;1.60;;;;;;;16.32;72.60;99829.19;686888;28;5542;-53
2021/08/08 01:13:10;;;;;;;4.22;1.80;;;;;;;16.42;72.04;99829.66;687775;28;1445;-54
2021/08/08 01:13:32;;;;;;;3.78;1.80;;;;;;;16.45;71.89;99833.94;684242;28;1854;-53
2021/08/08 01:13:53;;;;;;;3.72;1.70;;;;;;;16.47;71.60;99830.28;683758;28;1233;-52
2021/08/08 01:14:17;;;;;;;3.90;1.80;;;;;;;16.53;71.41;99829.16;685316;28;1650;-54
2021/08/08 01:14:44;;;;;;;5.30;2.03;;;;;;;16.65;70.44;99830.44;688058;28;4313;-52
2021/08/08 01:15:06;;;;;;;4.43;2.10;;;;;;;16.64;70.27;99826.97;687246;28;4080;-52
2021/08/08 01:15:27;;;;;;;5.47;2.00;;;;;;;16.67;70.10;99836.53;688101;28;1734;-52
2021/08/08 01:15:49;;;;;;;6.07;2.10;;;;;;;16.68;70.32;99827.66;686201;28;5345;-53
2021/08/08 01:16:13;;;;;;;4.90;2.03;;;;;;;16.65;70.38;99839.19;687552;28;1889;-53
2021/08/08 01:16:35;;;;;;;4.25;1.95;;;;;;;16.52;70.76;99832.75;689543;28;1514;-53
2021/08/08 01:17:01;;;;;;;4.63;1.83;;;;;;;16.45;71.39;99828.66;686866;28;1456;-54
2021/08/08 01:17:22;;;;;;;5.07;2.00;;;;;;;16.54;71.10;99833.53;685391;28;1974;-53
2021/08/08 01:17:44;;;;;;;4.78;2.10;;;;;;;16.57;70.49;99832.56;686212;28;1708;-52
2021/08/08 01:18:06;;;;;;;4.50;2.00;;;;;;;16.57;70.54;99833.41;683874;28;1244;-55
2021/08/08 01:18:29;;;;;;;3.60;1.90;;;;;;;16.64;70.42;99840.16;685217;28;1277;-58
2021/08/08 01:18:51;;;;;;;3.95;2.10;;;;;;;16.55;70.82;99834.41;686525;28;4572;-54
2021/08/08 01:19:17;;;;;;;4.63;2.22;;;;;;;16.52;70.63;99832.75;685814;28;1417;-55
2021/08/08 01:19:52;;;;;;;5.38;2.20;;;;;;;16.47;71.00;99840.84;690147;28;4572;-56
2021/08/08 01:20:13;;;;;;;5.03;2.10;;;;;;;16.39;71.15;99834.19;693400;28;1432;-57
2021/08/08 01:20:49;;;;;;;4.15;2.00;;;;;;;16.47;71.23;99834.72;692330;28;1604;-55
2021/08/08 01:21:10;;;;;;;4.43;1.90;;;;;;;16.42;71.82;99831.41;692003;28;1828;-52
2021/08/08 01:21:33;;;;;;;4.38;2.00;;;;;;;16.36;72.02;99836.97;691904;28;1726;-55
2021/08/08 01:21:54;;;;;;;4.57;2.10;;;;;;;16.29;71.87;99837.19;688369;28;4555;-55
2021/08/08 01:22:18;;;;;;;4.85;2.15;;;;;;;16.31;72.21;99835.38;690050;28;1473;-55
2021/08/08 01:22:47;;;;;;;4.20;2.00;;;;;;;16.39;71.49;99836.81;686356;28;1236;-52
2021/08/08 01:23:09;;;;;;;6.35;2.08;;;;;;;16.51;71.23;99837.16;687015;28;1703;-56
2021/08/08 01:23:33;;;;;;;7.05;2.30;;;;;;;16.48;71.20;99831.16;687333;28;1017;-52
2021/08/08 01:24:02;;;;;;;5.03;2.10;;;;;;;16.42;71.54;99836.69;691856;28;4013;-55
2021/08/08 01:24:23;;;;;;;4.88;2.00;;;;;;;16.36;71.72;99843.09;689212;28;2103;-57
2021/08/08 01:24:45;;;;;;;4.53;2.10;;;;;;;16.30;71.75;99835.44;686150;28;4842;-55
2021/08/08 01:25:07;;;;;;;5.00;2.08;;;;;;;16.34;71.59;99837.88;686358;28;1826;-51
2021/08/08 01:25:29;;;;;;;4.30;2.00;;;;;;;16.33;71.48;99845.84;688708;28;2108;-56
2021/08/08 01:25:50;;;;;;;5.20;1.90;;;;;;;16.32;72.15;99837.09;689366;28;1992;-55
2021/08/08 01:26:12;;;;;;;4.95;2.30;;;;;;;16.36;72.16;99831.69;686252;28;1704;-55
2021/08/08 01:26:33;;;;;;;4.45;2.25;;;;;;;16.32;72.01;99833.59;689261;28;1872;-55
2021/08/08 01:26:59;;;;;;;4.57;2.05;;;;;;;16.36;72.25;99829.06;686664;28;1599;-57
2021/08/08 01:27:20;;;;;;;7.77;2.20;;;;;;;16.36;71.81;99832.53;688133;28;1628;-56
2021/08/08 01:27:41;;;;;;;7.38;2.30;;;;;;;16.29;72.32;99831.09;687895;28;4591;-56
2021/08/08 01:28:02;;;;;;;5.53;2.23;;;;;;;16.40;71.57;99833.28;686964;28;1527;-55
2021/08/08 01:28:27;;;;;;;4.68;2.10;;;;;;;16.50;71.44;99831.94;684622;28;4259;-55
2021/08/08 01:28:49;;;;;;;5.10;2.10;;;;;;;16.57;70.65;99828.13;684389;28;1715;-56
2021/08/08 01:29:10;;;;;;;5.20;2.17;;;;;;;16.51;71.00;99828.41;687196;28;1779;-56
2021/08/08 01:29:33;;;;;;;4.57;2.40;;;;;;;16.55;70.76;99829.97;687565;28;2003;-56
2021/08/08 01:29:54;;;;;;;6.15;2.30;;;;;;;16.49;70.91;99833.75;689813;28;1692;-55
2021/08/08 01:30:15;;;;;;;6.18;2.30;;;;;;;16.39;71.02;99832.41;686113;28;1684;-56
2021/08/08 01:30:37;;;;;;;5.13;2.10;;;;;;;16.30;71.84;99831.00;686468;28;1656;-56
2021/08/08 01:30:57;;;;;;;4.45;2.00;;;;;;;16.39;71.58;99828.91;687181;28;4534;-55
2021/08/08 01:31:20;;;;;;;5.25;2.30;;;;;;;16.33;72.15;99827.41;688150;28;1278;-56
2021/08/08 01:31:52;;;;;;;5.50;2.20;;;;;;;16.37;72.52;99828.13;686520;28;1789;-55
2021/08/08 01:32:15;;;;;;;5.53;2.20;;;;;;;16.49;71.16;99835.50;686192;28;1844;-55
2021/08/08 01:32:36;;;;;;;5.65;2.15;;;;;;;16.47;71.10;99835.56;686546;28;1288;-53
2021/08/08 01:33:07;;;;;;;4.88;2.00;;;;;;;16.46;71.86;99835.63;683801;28;3695;-56
2021/08/08 01:33:34;;;;;;;5.80;2.15;;;;;;;16.48;70.43;99836.44;689160;28;1746;-55
2021/08/08 01:34:04;;;;;;;4.28;2.15;;;;;;;16.46;70.32;99827.72;690228;28;5331;-52
2021/08/08 01:34:24;;;;;;;4.77;2.20;;;;;;;16.46;70.24;99831.25;688911;28;1544;-55
2021/08/08 01:34:47;;;;;;;4.45;2.08;;;;;;;16.38;70.40;99832.47;689517;28;1487;-56
2021/08/08 01:35:10;;;;;;;4.80;2.10;;;;;;;16.38;70.76;99829.81;683819;28;1638;-56
2021/08/08 01:35:31;;;;;;;4.10;2.03;;;;;;;16.33;70.95;99828.25;683567;28;1638;-55
2021/08/08 01:35:52;;;;;;;4.20;1.92;;;;;;;16.32;70.78;99825.66;684984;28;1616;-52
2021/08/08 01:36:17;;;;;;;5.03;2.00;;;;;;;16.46;70.27;99828.59;686635;28;1683;-53
2021/08/08 01:36:39;;;;;;;5.32;2.00;;;;;;;16.45;70.42;99828.66;686943;28;1543;-53
2021/08/08 01:36:59;;;;;;;4.82;2.00;;;;;;;16.55;69.85;99824.69;686873;28;4570;-56
2021/08/08 01:37:21;;;;;;;4.20;1.90;;;;;;;16.57;69.93;99829.91;686523;28;1922;-54
2021/08/08 01:37:46;;;;;;;4.65;2.08;;;;;;;16.45;70.90;99832.16;687794;28;4735;-54
2021/08/08 01:38:08;;;;;;;5.38;2.15;;;;;;;16.53;70.62;99834.44;688924;28;1697;-56
2021/08/08 01:38:33;;;;;;;4.65;2.10;;;;;;;16.51;70.31;99837.16;687029;28;4030;-56
2021/08/08 01:39:01;;;;;;;3.95;1.90;;;;;;;16.44;70.50;99829.59;685849;28;3089;-56
2021/08/08 01:39:23;;;;;;;4.97;2.10;;;;;;;16.36;70.93;99829.06;686665;28;1706;-57
2021/08/08 01:39:52;;;;;;;5.10;2.13;;;;;;;16.32;71.55;99834.47;686234;28;4337;-56
2021/08/08 01:40:26;;;;;;;4.85;2.08;;;;;;;16.40;70.81;99835.91;686828;28;1880;-55
2021/08/08 01:41:02;;;;;;;4.40;2.15;;;;;;;16.43;70.11;99835.78;691758;28;1598;-53
2021/08/08 01:41:32;;;;;;;4.13;1.80;;;;;;;16.39;70.60;99839.47;692527;28;1243;-55
2021/08/08 01:41:59;;;;;;;4.45;1.80;;;;;;;16.28;70.98;99840.78;689520;28;1830;-54
2021/08/08 01:42:25;;;;;;;4.55;2.08;;;;;;;16.40;70.71;99841.19;690372;28;4210;-55
2021/08/08 01:42:52;;;;;;;4.80;2.10;;;;;;;16.51;70.08;99836.31;687907;28;4645;-56
2021/08/08 01:43:18;;;;;;;4.38;2.00;;;;;;;16.57;70.11;99837.81;688151;28;1652;-56
2021/08/08 01:43:46;;;;;;;5.63;2.13;;;;;;;16.58;69.78;99835.13;690126;28;1839;-58
2021/08/08 01:44:08;;;;;;;5.63;2.05;;;;;;;16.51;70.33;99847.72;689037;28;1511;-56
2021/08/08 01:44:38;;;;;;;4.35;2.00;;;;;;;16.64;68.68;99832.22;689751;28;1538;-55
2021/08/08 01:45:03;;;;;;;6.38;2.00;;;;;;;16.67;68.70;99837.38;690142;28;3260;-51
2021/08/08 01:45:26;;;;;;;5.32;1.90;;;;;;;16.67;68.76;99837.38;692226;28;4151;-55
2021/08/08 01:45:48;;;;;;;4.13;1.90;;;;;;;16.54;69.22;99836.16;691390;28;4605;-56
2021/08/08 01:46:11;;;;;;;4.90;2.15;;;;;;;16.44;69.41;99832.22;688743;28;1961;-53
2021/08/08 01:46:42;;;;;;;5.80;2.10;;;;;;;16.38;70.21;99840.38;684435;28;1545;-54
2021/08/08 01:47:12;;;;;;;4.90;2.08;;;;;;;16.29;70.60;99828.44;686088;28;2182;-56
2021/08/08 01:47:38;;;;;;;5.32;2.00;;;;;;;16.40;70.25;99841.19;687749;28;1326;-53
2021/08/08 01:48:11;;;;;;;4.88;2.20;;;;;;;16.39;70.53;99839.47;688764;28;1510;-55
2021/08/08 01:48:37;;;;;;;5.60;2.05;;;;;;;16.32;70.58;99842.38;685059;28;900;-56
2021/08/08 01:48:58;;;;;;;5.35;2.00;;;;;;;16.35;70.42;99836.09;682487;28;4409;-52
2021/08/08 01:49:22;;;;;;;5.45;2.20;;;;;;;16.36;70.34;99840.44;683532;28;1912;-54
2021/08/08 01:49:44;;;;;;;3.97;2.00;;;;;;;16.33;70.32;99844.06;683681;28;4530;-53
2021/08/08 01:50:07;;;;;;;5.05;1.98;;;;;;;16.34;69.76;99845.78;677908;29;1730;-53